createdAt,value
2022-10-26T00:02:02.236Z,99.90
2022-10-26T00:04:29.297Z,99.90
2022-10-26T00:06:56.313Z,99.90
2022-10-26T00:09:23.394Z,99.90
2022-10-26T00:11:50.448Z,99.90
2022-10-26T00:14:17.451Z,99.90
2022-10-26T00:16:44.517Z,99.90
2022-10-26T00:19:11.545Z,99.90
2022-10-26T00:21:38.624Z,99.90
2022-10-26T00:24:05.875Z,99.90
2022-10-26T00:26:32.918Z,99.90
2022-10-26T00:29:00.062Z,99.90
2022-10-26T00:31:27.116Z,99.90
2022-10-26T00:33:55.560Z,99.90
2022-10-26T00:36:24.654Z,99.90
2022-10-26T00:38:57.282Z,99.90
2022-10-26T00:41:32.065Z,99.90
2022-10-26T00:44:00.644Z,99.90
2022-10-26T00:46:32.578Z,99.90
2022-10-26T00:49:06.415Z,99.90
2022-10-26T00:51:44.868Z,99.90
2022-10-26T00:54:21.146Z,99.90
2022-10-26T00:56:54.790Z,99.90
2022-10-26T00:59:22.863Z,99.90
2022-10-26T01:01:51.896Z,99.90
2022-10-26T01:04:20.259Z,99.90
2022-10-26T01:06:48.512Z,99.90
2022-10-26T01:09:17.869Z,99.90
2022-10-26T01:11:44.909Z,99.90
2022-10-26T01:14:15.696Z,99.90
2022-10-26T01:20:26.585Z,99.90
2022-10-26T01:23:28.989Z,99.90
2022-10-26T01:26:13.900Z,99.90
2022-10-26T01:29:31.797Z,99.90
2022-10-26T01:32:50.532Z,99.90
2022-10-26T01:36:06.292Z,99.90
2022-10-26T01:39:08.959Z,99.90
2022-10-26T01:41:49.059Z,99.90
2022-10-26T01:44:41.936Z,99.90
2022-10-26T01:47:15.599Z,99.90
2022-10-26T01:49:50.771Z,99.90
2022-10-26T01:52:20.088Z,99.90
2022-10-26T01:54:47.226Z,99.90
2022-10-26T01:57:21.675Z,99.90
2022-10-26T01:59:59.884Z,99.90
2022-10-26T02:02:50.878Z,99.90
2022-10-26T02:05:35.473Z,99.90
2022-10-26T02:08:24.326Z,99.90
2022-10-26T02:11:07.660Z,99.90
2022-10-26T02:14:09.883Z,99.90
2022-10-26T02:17:13.407Z,99.90
2022-10-26T02:20:09.028Z,99.90
2022-10-26T02:22:43.264Z,99.90
2022-10-26T02:25:22.637Z,99.90
2022-10-26T02:27:57.227Z,99.90
2022-10-26T02:30:24.616Z,99.90
2022-10-26T02:32:55.825Z,99.90
2022-10-26T02:35:36.608Z,99.90
2022-10-26T02:38:10.261Z,99.90
2022-10-26T02:40:39.172Z,99.90
2022-10-26T02:43:15.709Z,99.90
2022-10-26T02:45:54.933Z,99.90
2022-10-26T02:48:23.507Z,99.90
2022-10-26T02:51:22.260Z,99.90
2022-10-26T02:54:06.383Z,99.90
2022-10-26T02:56:43.993Z,99.90
2022-10-26T02:59:14.423Z,99.90
2022-10-26T03:01:43.541Z,99.90
2022-10-26T03:04:10.897Z,99.90
2022-10-26T03:06:37.995Z,99.90
2022-10-26T03:09:05.166Z,99.90
2022-10-26T03:11:32.191Z,99.90
2022-10-26T03:13:59.248Z,99.90
2022-10-26T03:16:26.445Z,99.90
2022-10-26T03:18:53.460Z,99.90
2022-10-26T03:21:20.421Z,99.90
2022-10-26T03:23:48.020Z,99.90
2022-10-26T03:26:15.092Z,99.90
2022-10-26T03:28:42.058Z,99.90
2022-10-26T03:31:09.056Z,99.90
2022-10-26T03:36:08.816Z,99.90
2022-10-26T03:38:35.884Z,99.90
2022-10-26T03:41:03.038Z,99.90
2022-10-26T03:43:30.019Z,99.90
2022-10-26T03:45:57.380Z,99.90
2022-10-26T03:48:24.395Z,99.90
2022-10-26T03:50:51.388Z,99.90
2022-10-26T03:53:18.485Z,99.90
2022-10-26T03:55:45.911Z,99.90
2022-10-26T03:58:12.912Z,99.90
2022-10-26T04:00:39.982Z,99.90
2022-10-26T04:03:06.960Z,99.90
2022-10-26T04:05:33.953Z,99.90
2022-10-26T04:08:05.212Z,99.90
2022-10-26T04:10:32.854Z,99.90
2022-10-26T04:13:01.348Z,99.90
2022-10-26T04:15:29.216Z,99.90
2022-10-26T04:18:01.828Z,99.90
2022-10-26T04:20:30.511Z,99.90
2022-10-26T04:23:04.192Z,99.90
2022-10-26T04:25:33.564Z,99.90
2022-10-26T04:28:03.442Z,99.90
2022-10-26T04:30:31.400Z,99.90
2022-10-26T04:32:58.424Z,99.90
2022-10-26T04:35:25.803Z,99.90
2022-10-26T04:38:01.405Z,99.90
2022-10-26T04:40:30.274Z,99.90
2022-10-26T04:42:57.884Z,99.90
2022-10-26T04:45:25.154Z,99.90
2022-10-26T04:48:10.565Z,99.90
2022-10-26T04:50:39.080Z,99.90
2022-10-26T04:53:10.370Z,99.90
2022-10-26T04:55:37.879Z,99.90
2022-10-26T04:58:06.166Z,99.90
2022-10-26T05:00:34.718Z,99.90
2022-10-26T05:03:08.074Z,99.90
2022-10-26T05:05:37.656Z,99.90
2022-10-26T05:08:05.393Z,99.90
2022-10-26T05:10:33.039Z,99.90
2022-10-26T05:13:00.987Z,99.90
2022-10-26T05:15:29.038Z,99.90
2022-10-26T05:18:03.471Z,99.90
2022-10-26T05:20:33.330Z,99.90
2022-10-26T05:23:12.511Z,99.90
2022-10-26T05:25:39.524Z,99.90
2022-10-26T05:28:11.719Z,99.90
2022-10-26T05:30:40.308Z,99.90
2022-10-26T05:33:09.077Z,99.90
2022-10-26T05:35:36.667Z,99.90
2022-10-26T05:38:15.697Z,99.90
2022-10-26T05:40:54.373Z,99.90
2022-10-26T05:43:24.339Z,99.90
2022-10-26T05:45:51.996Z,99.90
2022-10-26T05:48:20.055Z,99.90
2022-10-26T05:50:47.252Z,99.90
2022-10-26T05:53:14.373Z,99.90
2022-10-26T05:55:42.413Z,99.90
2022-10-26T05:58:15.035Z,99.90
2022-10-26T06:01:00.540Z,99.90
2022-10-26T06:03:42.453Z,99.90
2022-10-26T06:06:13.404Z,99.90
2022-10-26T06:08:43.039Z,99.90
2022-10-26T06:11:10.882Z,99.90
2022-10-26T06:13:38.262Z,99.90
2022-10-26T06:16:24.818Z,99.90
2022-10-26T06:19:14.822Z,99.90
2022-10-26T06:22:16.372Z,99.90
2022-10-26T06:25:26.946Z,99.90
2022-10-26T06:28:12.873Z,99.90
2022-10-26T06:30:41.767Z,99.90
2022-10-26T06:33:24.916Z,99.90
2022-10-26T06:36:05.976Z,99.90
2022-10-26T06:38:36.996Z,99.90
2022-10-26T06:41:05.503Z,99.90
2022-10-26T06:43:35.754Z,99.90
2022-10-26T06:46:36.309Z,99.90
2022-10-26T06:49:21.052Z,99.90
2022-10-26T06:52:18.404Z,99.90
2022-10-26T06:54:54.628Z,99.90
2022-10-26T06:57:32.630Z,99.90
2022-10-26T07:00:23.205Z,99.90
2022-10-26T07:02:50.744Z,99.90
2022-10-26T07:05:18.540Z,99.90
2022-10-26T07:07:48.007Z,99.90
2022-10-26T07:10:16.082Z,99.90
2022-10-26T07:12:43.166Z,99.90
2022-10-26T07:15:10.798Z,99.90
2022-10-26T07:17:49.824Z,99.90
2022-10-26T07:20:20.636Z,99.90
2022-10-26T07:22:55.917Z,99.90
2022-10-26T07:25:25.331Z,99.90
2022-10-26T07:27:52.683Z,99.90
2022-10-26T07:30:19.786Z,99.90
2022-10-26T07:32:46.901Z,99.90
2022-10-26T07:35:14.707Z,99.90
2022-10-26T07:37:41.683Z,99.90
2022-10-26T07:40:09.273Z,99.90
2022-10-26T07:42:37.496Z,99.90
2022-10-26T07:45:05.415Z,99.90
2022-10-26T07:47:32.451Z,99.90
2022-10-26T07:49:59.429Z,99.90
2022-10-26T07:52:26.422Z,99.90
2022-10-26T07:54:53.401Z,99.90
2022-10-26T07:57:20.485Z,99.90
2022-10-26T07:59:47.651Z,99.90
2022-10-26T08:02:14.843Z,99.90
2022-10-26T08:04:41.836Z,99.90
2022-10-26T08:07:08.882Z,99.90
2022-10-26T08:09:35.864Z,99.90
2022-10-26T08:12:02.871Z,99.90
2022-10-26T08:14:29.849Z,99.90
2022-10-26T08:16:56.904Z,99.90
2022-10-26T08:19:23.944Z,99.90
2022-10-26T08:21:50.946Z,99.90
2022-10-26T08:24:17.916Z,99.90
2022-10-26T08:26:44.980Z,99.90
2022-10-26T08:29:12.126Z,99.90
2022-10-26T08:31:39.141Z,99.90
2022-10-26T08:34:06.244Z,99.90
2022-10-26T08:36:33.606Z,99.90
2022-10-26T08:41:43.865Z,99.90
2022-10-26T08:44:32.925Z,99.90
2022-10-26T08:47:35.877Z,99.90
2022-10-26T08:50:13.418Z,99.90
2022-10-26T08:53:03.902Z,99.90
2022-10-26T08:58:25.499Z,99.90
2022-10-26T09:00:53.633Z,99.90
2022-10-26T09:03:20.780Z,99.90
2022-10-26T09:06:27.666Z,99.90
2022-10-26T09:09:24.428Z,99.90
2022-10-26T09:12:09.659Z,99.90
2022-10-26T09:15:08.717Z,99.90
2022-10-26T09:18:00.108Z,99.90
2022-10-26T09:21:06.121Z,99.90
2022-10-26T09:24:27.746Z,99.90
2022-10-26T09:27:02.640Z,99.90
2022-10-26T09:29:41.620Z,99.90
2022-10-26T09:32:23.682Z,99.90
2022-10-26T09:35:04.488Z,99.90
2022-10-26T09:37:48.156Z,99.90
2022-10-26T09:40:38.157Z,99.90
2022-10-26T09:43:14.217Z,99.90
2022-10-26T09:45:53.472Z,99.90
2022-10-26T09:48:28.076Z,99.90
2022-10-26T09:51:01.874Z,99.90
2022-10-26T09:53:32.682Z,99.90
2022-10-26T09:56:12.783Z,99.90
2022-10-26T09:59:11.894Z,99.90
2022-10-26T10:01:41.546Z,99.90
2022-10-26T10:04:17.756Z,99.90
2022-10-26T10:06:47.717Z,99.90
2022-10-26T10:09:21.616Z,99.90
2022-10-26T10:12:02.695Z,99.90
2022-10-26T10:14:40.683Z,99.90
2022-10-26T10:17:18.571Z,99.90
2022-10-26T10:19:45.798Z,99.90
2022-10-26T10:22:24.611Z,99.90
2022-10-26T10:25:01.265Z,99.90
2022-10-26T10:27:31.226Z,99.90
2022-10-26T10:30:19.446Z,99.90
2022-10-26T10:32:46.488Z,99.90
2022-10-26T10:35:29.138Z,99.90
2022-10-26T10:37:56.949Z,99.90
2022-10-26T10:40:31.958Z,99.90
2022-10-26T10:43:12.788Z,99.90
2022-10-26T10:45:46.915Z,99.90
2022-10-26T10:48:20.810Z,99.90
2022-10-26T10:51:12.650Z,99.90
2022-10-26T10:53:50.306Z,99.90
2022-10-26T10:57:15.154Z,99.90
2022-10-26T11:00:04.621Z,99.90
2022-10-26T11:02:52.517Z,99.90
2022-10-26T11:05:33.254Z,99.90
2022-10-26T11:08:37.896Z,99.90
2022-10-26T11:11:15.626Z,99.90
2022-10-26T11:14:06.293Z,99.90
2022-10-26T11:16:50.215Z,99.90
2022-10-26T11:19:42.283Z,99.90
2022-10-26T11:22:22.454Z,99.90
2022-10-26T11:25:04.570Z,99.90
2022-10-26T11:27:53.649Z,99.90
2022-10-26T11:30:25.681Z,99.90
2022-10-26T11:33:02.938Z,99.90
2022-10-26T11:35:45.818Z,99.90
2022-10-26T11:39:06.475Z,99.90
2022-10-26T11:41:43.912Z,99.90
2022-10-26T11:44:38.648Z,99.90
2022-10-26T11:47:14.776Z,99.90
2022-10-26T11:50:02.001Z,99.90
2022-10-26T11:52:40.672Z,99.90
2022-10-26T11:55:11.512Z,99.90
2022-10-26T11:57:57.866Z,99.90
2022-10-26T12:00:27.030Z,99.90
2022-10-26T12:03:14.563Z,99.80
2022-10-26T12:05:44.417Z,99.90
2022-10-26T12:08:37.420Z,99.40
2022-10-26T12:11:35.549Z,99.60
2022-10-26T12:14:12.890Z,99.90
2022-10-26T12:17:00.013Z,99.90
2022-10-26T12:19:48.610Z,99.90
2022-10-26T12:22:19.985Z,99.90
2022-10-26T12:25:15.309Z,99.90
2022-10-26T12:27:42.598Z,99.90
2022-10-26T12:30:16.044Z,99.90
2022-10-26T12:32:48.513Z,99.90
2022-10-26T12:35:38.848Z,99.30
2022-10-26T12:38:24.088Z,98.50
2022-10-26T12:41:12.207Z,98.30
2022-10-26T12:43:41.513Z,98.50
2022-10-26T12:46:14.504Z,98.90
2022-10-26T12:48:50.490Z,98.00
2022-10-26T12:51:23.145Z,98.50
2022-10-26T12:54:45.193Z,98.60
2022-10-26T12:57:29.172Z,98.90
2022-10-26T13:00:05.963Z,98.90
2022-10-26T13:02:48.546Z,99.10
2022-10-26T13:05:44.391Z,97.60
2022-10-26T13:08:14.034Z,98.30
2022-10-26T13:11:05.053Z,97.80
2022-10-26T13:13:35.413Z,97.80
2022-10-26T13:16:04.186Z,97.90
2022-10-26T13:18:31.522Z,97.70
2022-10-26T13:21:12.894Z,96.70
2022-10-26T13:23:48.130Z,96.90
2022-10-26T13:26:22.326Z,96.40
2022-10-26T13:28:57.114Z,96.00
2022-10-26T13:31:32.839Z,96.00
2022-10-26T13:36:58.256Z,95.80
2022-10-26T13:39:37.350Z,96.00
2022-10-26T13:42:07.609Z,95.50
2022-10-26T13:45:30.526Z,95.40
2022-10-26T13:48:06.300Z,95.70
2022-10-26T13:53:51.454Z,95.90
2022-10-26T13:56:41.461Z,95.80
2022-10-26T13:59:13.966Z,95.30
2022-10-26T14:01:41.340Z,95.80
2022-10-26T14:04:27.523Z,95.40
2022-10-26T14:06:55.315Z,95.30
2022-10-26T14:09:23.321Z,95.40
2022-10-26T14:12:00.605Z,95.00
2022-10-26T14:14:32.196Z,95.00
2022-10-26T14:17:00.220Z,95.40
2022-10-26T14:19:34.006Z,95.20
2022-10-26T14:22:02.534Z,95.70
2022-10-26T14:24:45.575Z,95.40
2022-10-26T14:27:28.110Z,95.20
2022-10-26T14:30:21.120Z,95.10
2022-10-26T14:32:42.863Z,95.20
2022-10-26T14:35:14.541Z,95.30
2022-10-26T14:38:06.385Z,95.30
2022-10-26T14:40:36.238Z,95.60
2022-10-26T14:43:05.725Z,95.60
2022-10-26T14:45:54.692Z,95.40
2022-10-26T14:48:35.223Z,94.80
2022-10-26T14:51:35.966Z,95.20
2022-10-26T14:54:04.402Z,95.00
2022-10-26T14:56:41.049Z,95.40
2022-10-26T14:59:21.998Z,95.80
2022-10-26T15:02:01.491Z,95.80
2022-10-26T15:04:37.605Z,95.80
2022-10-26T15:07:18.442Z,95.80
2022-10-26T15:09:53.452Z,95.90
2022-10-26T15:12:34.962Z,96.10
2022-10-26T15:15:23.830Z,96.10
2022-10-26T15:17:55.697Z,96.10
2022-10-26T15:20:26.617Z,96.20
2022-10-26T15:23:02.006Z,96.20
2022-10-26T15:25:33.749Z,96.50
2022-10-26T15:28:20.868Z,96.30
2022-10-26T15:31:05.992Z,96.40
2022-10-26T15:33:34.713Z,96.30
2022-10-26T15:36:24.888Z,96.40
2022-10-26T15:38:52.450Z,96.50
2022-10-26T15:41:26.765Z,96.50
2022-10-26T15:43:57.341Z,96.60
2022-10-26T15:46:29.146Z,96.70
2022-10-26T15:49:00.681Z,96.90
2022-10-26T15:51:30.053Z,97.00
2022-10-26T15:54:04.727Z,97.10
2022-10-26T15:56:32.316Z,97.20
2022-10-26T15:58:59.684Z,97.20
2022-10-26T16:01:29.371Z,97.30
2022-10-26T16:03:56.781Z,97.30
2022-10-26T16:06:33.658Z,97.30
2022-10-26T16:09:04.604Z,97.40
2022-10-26T16:11:31.819Z,97.50
2022-10-26T16:14:02.810Z,97.60
2022-10-26T16:16:31.558Z,97.80
2022-10-26T16:19:18.489Z,97.80
2022-10-26T16:21:45.782Z,97.80
2022-10-26T16:24:12.957Z,97.90
2022-10-26T16:26:39.966Z,98.00
2022-10-26T16:29:06.958Z,98.10
2022-10-26T16:31:34.029Z,98.10
2022-10-26T16:34:04.094Z,98.20
2022-10-26T16:36:35.058Z,98.20
2022-10-26T16:41:29.370Z,98.40
2022-10-26T16:43:56.721Z,98.40
2022-10-26T16:46:24.672Z,98.30
2022-10-26T16:48:52.550Z,98.40
2022-10-26T16:51:28.981Z,98.50
2022-10-26T16:53:57.350Z,98.70
2022-10-26T16:56:28.742Z,98.80
2022-10-26T16:58:57.223Z,98.90
2022-10-26T17:01:25.238Z,99.10
2022-10-26T17:03:53.397Z,99.00
2022-10-26T17:06:20.964Z,99.00
2022-10-26T17:08:48.375Z,99.00
2022-10-26T17:11:19.305Z,99.00
2022-10-26T17:13:47.765Z,99.10
2022-10-26T17:16:20.766Z,99.10
2022-10-26T17:18:48.766Z,99.10
2022-10-26T17:21:20.432Z,99.10
2022-10-26T17:23:47.499Z,99.20
2022-10-26T17:26:15.493Z,99.10
2022-10-26T17:28:43.087Z,99.10
2022-10-26T17:31:15.866Z,99.20
2022-10-26T17:33:45.338Z,99.20
2022-10-26T17:36:16.066Z,99.20
2022-10-26T17:38:44.088Z,99.20
2022-10-26T17:41:14.910Z,99.20
2022-10-26T17:43:44.007Z,99.20
2022-10-26T17:46:21.204Z,99.20
2022-10-26T17:48:48.330Z,99.30
2022-10-26T17:51:18.729Z,99.30
2022-10-26T17:53:50.629Z,99.40
2022-10-26T17:56:29.412Z,99.40
2022-10-26T17:59:00.088Z,99.40
2022-10-26T18:01:28.604Z,99.40
2022-10-26T18:03:56.126Z,99.60
2022-10-26T18:06:24.226Z,99.70
2022-10-26T18:08:51.271Z,99.50
2022-10-26T18:11:26.514Z,99.50
2022-10-26T18:13:58.199Z,99.70
2022-10-26T18:16:27.697Z,99.70
2022-10-26T18:19:02.892Z,99.70
2022-10-26T18:21:37.569Z,99.70
2022-10-26T18:24:07.175Z,99.80
2022-10-26T18:26:35.044Z,99.90
2022-10-26T18:29:04.160Z,99.90
2022-10-26T18:31:34.703Z,99.60
2022-10-26T18:34:04.624Z,99.40
2022-10-26T18:36:32.540Z,99.40
2022-10-26T18:38:59.736Z,99.50
2022-10-26T18:41:27.544Z,99.90
2022-10-26T18:43:58.877Z,99.90
2022-10-26T18:46:29.573Z,99.90
2022-10-26T18:48:58.899Z,99.90
2022-10-26T18:51:31.223Z,99.90
2022-10-26T18:53:59.282Z,99.90
2022-10-26T18:56:27.291Z,99.90
2022-10-26T18:58:58.905Z,99.90
2022-10-26T19:01:32.771Z,99.90
2022-10-26T19:04:03.639Z,99.90
2022-10-26T19:06:38.200Z,99.90
2022-10-26T19:09:07.805Z,99.90
2022-10-26T19:11:35.490Z,99.90
2022-10-26T19:14:02.895Z,99.90
2022-10-26T19:16:45.274Z,99.90
2022-10-26T19:19:14.998Z,99.90
2022-10-26T19:21:42.073Z,99.90
2022-10-26T19:24:19.790Z,99.90
2022-10-26T19:26:48.292Z,99.90
2022-10-26T19:29:17.522Z,99.90
2022-10-26T19:31:51.855Z,99.90
2022-10-26T19:34:19.397Z,99.90
2022-10-26T19:36:47.259Z,99.90
2022-10-26T19:39:16.963Z,99.90
2022-10-26T19:41:45.732Z,99.90
2022-10-26T19:44:14.533Z,99.90
2022-10-26T19:46:43.303Z,99.90
2022-10-26T19:49:10.535Z,99.90
2022-10-26T19:51:37.622Z,99.90
2022-10-26T19:54:07.161Z,99.90
2022-10-26T19:56:36.919Z,99.90
2022-10-26T19:59:05.302Z,99.90
2022-10-26T20:01:32.613Z,99.90
2022-10-26T20:04:02.307Z,99.90
2022-10-26T20:06:30.696Z,99.90
2022-10-26T20:08:58.066Z,99.90
2022-10-26T20:11:25.033Z,99.90
2022-10-26T20:13:52.209Z,99.90
2022-10-26T20:16:19.281Z,99.90
2022-10-26T20:18:48.770Z,99.90
2022-10-26T20:21:17.634Z,99.90
2022-10-26T20:23:45.940Z,99.90
2022-10-26T20:26:19.062Z,99.90
2022-10-26T20:28:53.017Z,99.90
2022-10-26T20:31:20.162Z,99.90
2022-10-26T20:33:51.853Z,99.90
2022-10-26T20:36:19.232Z,99.90
2022-10-26T20:38:46.708Z,99.90
2022-10-26T20:41:14.187Z,99.90
2022-10-26T20:43:42.220Z,99.90
2022-10-26T20:46:26.483Z,99.90
2022-10-26T20:48:54.450Z,99.90
2022-10-26T20:51:35.911Z,99.90
2022-10-26T20:54:16.571Z,99.90
2022-10-26T20:56:45.030Z,99.90
2022-10-26T20:59:29.724Z,99.90
2022-10-26T21:01:56.789Z,99.90
2022-10-26T21:04:23.850Z,99.90
2022-10-26T21:06:50.866Z,99.90
2022-10-26T21:09:17.834Z,99.90
2022-10-26T21:11:45.524Z,99.90
2022-10-26T21:14:12.647Z,99.90
2022-10-26T21:16:39.685Z,99.90
2022-10-26T21:19:08.382Z,99.90
2022-10-26T21:21:35.379Z,99.90
2022-10-26T21:24:02.431Z,99.90
2022-10-26T21:26:29.532Z,99.90
2022-10-26T21:28:56.588Z,99.90
2022-10-26T21:31:23.726Z,99.90
2022-10-26T21:33:50.738Z,99.90
2022-10-26T21:36:18.249Z,99.90
2022-10-26T21:38:46.328Z,99.90
2022-10-26T21:41:19.323Z,99.90
2022-10-26T21:43:59.088Z,99.90
2022-10-26T21:46:38.381Z,99.90
2022-10-26T21:49:06.218Z,99.90
2022-10-26T21:51:35.071Z,99.90
2022-10-26T21:54:03.030Z,99.90
2022-10-26T21:56:30.081Z,99.90
2022-10-26T21:59:00.194Z,99.90
2022-10-26T22:01:27.589Z,99.90
2022-10-26T22:03:55.101Z,99.90
2022-10-26T22:06:22.758Z,99.90
2022-10-26T22:08:49.812Z,99.90
2022-10-26T22:11:23.290Z,99.90
2022-10-26T22:13:52.047Z,99.90
2022-10-26T22:16:26.000Z,99.90
2022-10-26T22:18:56.194Z,99.90
2022-10-26T22:21:27.146Z,99.90
2022-10-26T22:23:54.505Z,99.90
2022-10-26T22:26:24.884Z,99.90
2022-10-26T22:28:56.224Z,99.90
2022-10-26T22:31:33.356Z,99.90
2022-10-26T22:34:06.596Z,99.90
2022-10-26T22:36:35.320Z,99.90
2022-10-26T22:39:02.889Z,99.90
2022-10-26T22:41:29.942Z,99.90
2022-10-26T22:43:57.027Z,99.90
2022-10-26T22:46:27.157Z,99.90
2022-10-26T22:48:57.022Z,99.90
2022-10-26T22:51:27.541Z,99.90
2022-10-26T22:53:56.924Z,99.90
2022-10-26T22:58:53.822Z,99.90
2022-10-26T23:01:29.137Z,99.90
2022-10-26T23:03:56.707Z,99.90
2022-10-26T23:06:27.086Z,99.90
2022-10-26T23:08:54.494Z,99.90
2022-10-26T23:11:25.382Z,99.90
2022-10-26T23:13:54.584Z,99.90
2022-10-26T23:16:22.121Z,99.90
2022-10-26T23:18:49.639Z,99.90
2022-10-26T23:21:17.862Z,99.90
2022-10-26T23:23:45.172Z,99.90
2022-10-26T23:26:16.472Z,99.90
2022-10-26T23:28:44.792Z,99.90
2022-10-26T23:31:22.410Z,99.90
2022-10-26T23:33:54.903Z,99.90
2022-10-26T23:36:22.690Z,99.90
2022-10-26T23:38:49.783Z,99.90
2022-10-26T23:41:16.813Z,99.90
2022-10-26T23:43:43.946Z,99.90
2022-10-26T23:46:11.145Z,99.90
2022-10-26T23:48:38.291Z,99.90
2022-10-26T23:51:05.727Z,99.90
2022-10-26T23:53:32.804Z,99.90
2022-10-26T23:55:59.793Z,99.90
2022-10-26T23:58:26.884Z,99.90
